createdAt,value
2017-01-21T00:01:26.652Z,61.32
2017-01-21T00:03:38.897Z,61.31
2017-01-21T00:05:51.090Z,61.26
2017-01-21T00:08:03.801Z,61.22
2017-01-21T00:10:16.656Z,61.2
2017-01-21T00:12:29.035Z,61.15
2017-01-21T00:14:41.403Z,61.09
2017-01-21T00:16:53.614Z,61.08
2017-01-21T00:19:05.966Z,61.09
2017-01-21T00:21:18.314Z,61.06
2017-01-21T00:23:30.651Z,61.02
2017-01-21T00:25:42.946Z,61.02
2017-01-21T00:27:50.265Z,61.03
2017-01-21T00:30:02.514Z,61.1
2017-01-21T00:32:14.770Z,61.14
2017-01-21T00:34:26.906Z,61.18
2017-01-21T00:36:39.475Z,61.18
2017-01-21T00:38:51.732Z,61.16
2017-01-21T00:40:59.000Z,61.07
2017-01-21T00:43:11.947Z,61.03
2017-01-21T00:45:24.266Z,61.01
2017-01-21T00:47:36.487Z,61
2017-01-21T00:49:47.019Z,61
2017-01-21T00:51:59.415Z,61
2017-01-21T00:54:11.662Z,60.96
2017-01-21T00:56:23.949Z,60.93
2017-01-21T00:58:36.144Z,60.93
2017-01-21T01:00:43.295Z,60.94
2017-01-21T01:02:55.680Z,60.97
2017-01-21T01:05:07.909Z,61
2017-01-21T01:07:18.552Z,61
2017-01-21T01:09:30.813Z,61
2017-01-21T01:11:43.008Z,60.95
2017-01-21T01:13:55.194Z,60.95
2017-01-21T01:16:07.731Z,60.91
2017-01-21T01:18:20.418Z,60.82
2017-01-21T01:20:32.887Z,60.75
2017-01-21T01:22:45.116Z,60.72
2017-01-21T01:24:57.489Z,60.7
2017-01-21T01:26:59.828Z,60.7
2017-01-21T01:29:12.084Z,60.69
2017-01-21T01:31:24.394Z,60.71
2017-01-21T01:33:36.706Z,60.73
2017-01-21T01:35:48.892Z,60.71
2017-01-21T01:37:56.156Z,60.68
2017-01-21T01:40:08.519Z,60.64
2017-01-21T01:42:20.915Z,60.62
2017-01-21T01:44:28.134Z,60.61
2017-01-21T01:46:35.382Z,60.58
2017-01-21T01:48:42.774Z,60.54
2017-01-21T01:50:55.477Z,60.5
2017-01-21T01:53:08.314Z,60.48
2017-01-21T01:55:20.530Z,60.45
2017-01-21T01:57:33.053Z,60.45
2017-01-21T01:59:45.305Z,60.45
2017-01-21T02:01:57.486Z,60.45
2017-01-21T02:04:09.907Z,60.46
2017-01-21T02:06:17.081Z,60.5
2017-01-21T02:08:29.339Z,60.55
2017-01-21T02:10:36.795Z,60.54
2017-01-21T02:12:44.039Z,60.53
2017-01-21T02:14:56.465Z,60.49
2017-01-21T02:17:08.729Z,60.49
2017-01-21T02:19:20.941Z,60.48
2017-01-21T02:21:28.224Z,60.45
2017-01-21T02:23:40.447Z,60.42
2017-01-21T02:25:52.980Z,60.39
2017-01-21T02:28:00.631Z,60.36
2017-01-21T02:30:12.940Z,60.36
2017-01-21T02:32:20.205Z,60.38
2017-01-21T02:34:27.368Z,60.4
2017-01-21T02:36:39.545Z,60.44
2017-01-21T02:38:46.744Z,60.48
2017-01-21T02:40:59.377Z,60.5
2017-01-21T02:43:11.797Z,60.55
2017-01-21T02:45:24.026Z,60.58
2017-01-21T02:47:36.312Z,60.62
2017-01-21T02:49:43.720Z,60.64
2017-01-21T02:51:51.153Z,60.61
2017-01-21T02:54:03.356Z,60.57
2017-01-21T02:56:15.620Z,60.55
2017-01-21T02:58:22.968Z,60.58
2017-01-21T03:00:31.003Z,60.58
2017-01-21T03:02:43.850Z,60.59
2017-01-21T03:04:56.075Z,60.63
2017-01-21T03:07:08.450Z,60.66
2017-01-21T03:09:20.662Z,60.68
2017-01-21T03:11:32.861Z,60.68
2017-01-21T03:13:45.322Z,60.6
2017-01-21T03:15:57.449Z,60.51
2017-01-21T03:18:04.725Z,60.47
2017-01-21T03:20:17.015Z,60.45
2017-01-21T03:22:27.601Z,60.4
2017-01-21T03:24:34.901Z,60.36
2017-01-21T03:26:47.286Z,60.35
2017-01-21T03:28:59.615Z,60.37
2017-01-21T03:31:11.917Z,60.4
2017-01-21T03:33:24.360Z,60.43
2017-01-21T03:35:36.931Z,60.45
2017-01-21T03:37:47.570Z,60.48
2017-01-21T03:39:59.869Z,60.49
2017-01-21T03:42:12.298Z,60.49
2017-01-21T03:44:24.592Z,60.51
2017-01-21T03:46:36.961Z,60.52
2017-01-21T03:48:49.388Z,60.5
2017-01-21T03:51:01.785Z,60.47
2017-01-21T03:53:09.243Z,60.45
2017-01-21T03:55:21.633Z,60.42
2017-01-21T03:57:34.154Z,60.41
2017-01-21T03:59:46.571Z,60.38
2017-01-21T04:01:58.844Z,60.35
2017-01-21T04:04:11.371Z,60.31
2017-01-21T04:06:23.545Z,60.29
2017-01-21T04:08:35.826Z,60.24
2017-01-21T04:10:48.444Z,60.13
2017-01-21T04:13:01.200Z,60.08
2017-01-21T04:15:03.578Z,60.03
2017-01-21T04:17:15.830Z,60.02
2017-01-21T04:19:28.126Z,60.01
2017-01-21T04:21:40.331Z,60.03
2017-01-21T04:23:52.473Z,60.1
2017-01-21T04:25:59.749Z,60.12
2017-01-21T04:28:12.028Z,60.23
2017-01-21T04:30:24.283Z,60.33
2017-01-21T04:32:34.841Z,60.41
2017-01-21T04:34:47.033Z,60.47
2017-01-21T04:36:59.297Z,60.51
2017-01-21T04:39:11.633Z,60.53
2017-01-21T04:41:23.832Z,60.51
2017-01-21T04:43:31.028Z,60.46
2017-01-21T04:45:43.831Z,60.43
2017-01-21T04:47:56.142Z,60.43
2017-01-21T04:50:08.366Z,60.42
2017-01-21T04:52:18.922Z,60.39
2017-01-21T04:54:21.441Z,60.32
2017-01-21T04:56:33.804Z,60.25
2017-01-21T04:58:46.348Z,60.25
2017-01-21T05:00:58.642Z,60.19
2017-01-21T05:03:11.068Z,60.16
2017-01-21T05:05:23.220Z,60.14
2017-01-21T05:07:35.622Z,60.09
2017-01-21T05:09:47.849Z,60.05
2017-01-21T05:12:00.180Z,60.02
2017-01-21T05:14:12.514Z,60.02
2017-01-21T05:16:24.697Z,60.01
2017-01-21T05:18:32.161Z,60.01
2017-01-21T05:20:40.672Z,60.02
2017-01-21T05:22:53.833Z,60.04
2017-01-21T05:25:07.016Z,60.06
2017-01-21T05:27:20.092Z,60.04
2017-01-21T05:29:33.300Z,59.98
2017-01-21T05:31:46.184Z,59.95
2017-01-21T05:33:54.189Z,59.93
2017-01-21T05:36:06.993Z,59.94
2017-01-21T05:38:19.945Z,59.94
2017-01-21T05:40:33.119Z,59.93
2017-01-21T05:42:46.056Z,59.89
2017-01-21T05:44:58.562Z,59.87
2017-01-21T05:47:11.208Z,59.89
2017-01-21T05:49:24.029Z,59.9
2017-01-21T05:51:36.948Z,59.94
2017-01-21T05:53:50.395Z,59.95
2017-01-21T05:56:04.149Z,59.94
2017-01-21T05:58:17.024Z,59.9
2017-01-21T06:00:29.848Z,59.88
2017-01-21T06:02:42.738Z,59.82
2017-01-21T06:04:55.871Z,59.81
2017-01-21T06:07:08.843Z,59.79
2017-01-21T06:09:23.999Z,59.76
2017-01-21T06:11:40.771Z,59.74
2017-01-21T06:13:53.616Z,59.73
2017-01-21T06:16:06.617Z,59.72
2017-01-21T06:18:26.612Z,59.71
2017-01-21T06:20:34.628Z,59.66
2017-01-21T06:22:47.783Z,59.62
2017-01-21T06:25:00.467Z,59.6
2017-01-21T06:27:11.574Z,59.58
2017-01-21T06:29:24.501Z,59.56
2017-01-21T06:31:37.571Z,59.56
2017-01-21T06:33:45.287Z,59.56
2017-01-21T06:35:53.062Z,59.58
2017-01-21T06:38:05.504Z,59.6
2017-01-21T06:40:18.110Z,59.59
2017-01-21T06:42:35.710Z,59.55
2017-01-21T06:44:55.045Z,59.52
2017-01-21T06:47:07.642Z,59.53
2017-01-21T06:49:20.527Z,59.54
2017-01-21T06:51:28.434Z,59.56
2017-01-21T06:53:41.336Z,59.56
2017-01-21T06:55:54.235Z,59.52
2017-01-21T06:58:07.281Z,59.49
2017-01-21T07:00:20.084Z,59.38
2017-01-21T07:02:32.770Z,59.35
2017-01-21T07:04:46.117Z,59.33
2017-01-21T07:06:58.510Z,59.25
2017-01-21T07:09:10.805Z,59.17
2017-01-21T07:11:23.052Z,59.16
2017-01-21T07:13:35.296Z,59.11
2017-01-21T07:15:47.762Z,59.07
2017-01-21T07:18:00.268Z,59.03
2017-01-21T07:20:12.962Z,58.99
2017-01-21T07:22:25.364Z,58.9
2017-01-21T07:24:37.652Z,58.81
2017-01-21T07:26:50.084Z,58.74
2017-01-21T07:29:02.656Z,58.7
2017-01-21T07:31:15.112Z,58.65
2017-01-21T07:33:27.957Z,58.54
2017-01-21T07:35:40.409Z,58.41
2017-01-21T07:37:52.948Z,58.38
2017-01-21T07:40:05.784Z,58.31
2017-01-21T07:42:18.109Z,58.2
2017-01-21T07:44:30.399Z,58.07
2017-01-21T07:46:42.802Z,58.02
2017-01-21T07:51:01.025Z,57.97
2017-01-21T07:53:06.539Z,57.92
2017-01-21T07:55:18.872Z,57.91
2017-01-21T07:57:26.094Z,57.84
2017-01-21T07:59:38.424Z,57.74
2017-01-21T08:01:50.740Z,57.67
2017-01-21T08:03:58.166Z,57.63
2017-01-21T08:06:10.790Z,57.55
2017-01-21T08:08:18.761Z,57.45
2017-01-21T08:10:31.813Z,57.28
2017-01-21T08:12:44.888Z,57.06
2017-01-21T08:14:58.287Z,56.93
2017-01-21T08:17:12.876Z,56.81
2017-01-21T08:19:27.219Z,56.74
2017-01-21T08:21:40.559Z,56.72
2017-01-21T08:23:55.051Z,56.55
2017-01-21T08:26:09.308Z,56.44
2017-01-21T08:28:22.251Z,56.43
2017-01-21T08:30:34.694Z,56.28
2017-01-21T08:32:47.527Z,56.26
2017-01-21T08:34:55.315Z,56.16
2017-01-21T08:37:07.721Z,55.99
2017-01-21T08:39:20.017Z,55.85
2017-01-21T08:41:32.424Z,55.76
2017-01-21T08:43:50.651Z,55.6
2017-01-21T08:46:04.031Z,55.39
2017-01-21T08:48:16.713Z,55.29
2017-01-21T08:50:29.280Z,55.15
2017-01-21T08:52:41.642Z,55.01
2017-01-21T08:54:54.045Z,54.91
2017-01-21T08:57:06.352Z,54.82
2017-01-21T08:59:18.851Z,54.83
2017-01-21T09:01:31.847Z,54.99
2017-01-21T09:03:44.976Z,54.97
2017-01-21T09:05:57.428Z,55.01
2017-01-21T09:07:59.704Z,55
2017-01-21T09:10:12.128Z,55.01
2017-01-21T09:12:19.629Z,54.99
2017-01-21T09:14:32.031Z,54.79
2017-01-21T09:16:44.552Z,54.52
2017-01-21T09:18:57.083Z,54.29
2017-01-21T09:21:10.077Z,53.85
2017-01-21T09:23:23.440Z,53.54
2017-01-21T09:25:41.114Z,53.21
2017-01-21T09:27:49.018Z,52.83
2017-01-21T09:30:04.788Z,52.71
2017-01-21T09:32:20.611Z,52.86
2017-01-21T09:34:33.398Z,52.8
2017-01-21T09:36:40.674Z,52.36
2017-01-21T09:38:53.436Z,52.18
2017-01-21T09:41:06.292Z,52.51
2017-01-21T09:43:19.223Z,51.58
2017-01-21T09:45:26.636Z,51.03
2017-01-21T09:47:38.893Z,51.26
2017-01-21T09:49:51.128Z,50.27
2017-01-21T09:51:58.395Z,49.83
2017-01-21T09:54:10.725Z,49.06
2017-01-21T09:56:24.299Z,48.76
2017-01-21T09:58:37.583Z,47.03
2017-01-21T10:00:49.989Z,45.65
2017-01-21T10:03:02.454Z,43.84
2017-01-21T10:05:10.356Z,42.45
2017-01-21T10:07:17.771Z,42.44
2017-01-21T10:09:31.711Z,43.73
2017-01-21T10:11:44.171Z,43.57
2017-01-21T10:13:56.478Z,44.83
2017-01-21T10:16:08.804Z,42.49
2017-01-21T10:18:21.448Z,40.96
2017-01-21T10:20:34.948Z,40.32
2017-01-21T10:22:47.495Z,40.87
2017-01-21T10:24:55.273Z,42.56
2017-01-21T10:27:08.746Z,41.85
2017-01-21T10:29:23.781Z,39.97
2017-01-21T10:31:36.971Z,39.3
2017-01-21T10:33:49.324Z,39.22
2017-01-21T10:36:03.144Z,39.2
2017-01-21T10:38:15.958Z,39.17
2017-01-21T10:40:28.445Z,39.08
2017-01-21T10:42:41.856Z,38.96
2017-01-21T10:44:55.884Z,38.78
2017-01-21T10:47:08.521Z,38.6
2017-01-21T10:49:23.818Z,38.45
2017-01-21T10:51:29.898Z,38.43
2017-01-21T10:53:37.445Z,38.45
2017-01-21T10:55:49.939Z,38.64
2017-01-21T10:58:02.668Z,38.68
2017-01-21T11:00:20.243Z,38.6
2017-01-21T11:02:32.629Z,38.56
2017-01-21T11:04:46.186Z,38.63
2017-01-21T11:06:58.664Z,38.5
2017-01-21T11:09:11.059Z,38.41
2017-01-21T11:11:24.068Z,38.36
2017-01-21T11:13:36.859Z,38.29
2017-01-21T11:15:49.179Z,38.12
2017-01-21T11:18:01.731Z,38.07
2017-01-21T11:20:14.069Z,38
2017-01-21T11:22:27.155Z,37.84
2017-01-21T11:24:39.439Z,37.95
2017-01-21T11:26:51.875Z,37.9
2017-01-21T11:29:04.864Z,38.29
2017-01-21T11:31:15.768Z,38.11
2017-01-21T11:33:29.914Z,37.77
2017-01-21T11:37:55.204Z,38.3
2017-01-21T11:40:08.003Z,37.7
2017-01-21T11:42:20.313Z,37.5
2017-01-21T11:44:28.191Z,37.3
2017-01-21T11:46:40.662Z,37.91
2017-01-21T11:48:53.006Z,37.77
2017-01-21T11:51:00.642Z,37.55
2017-01-21T11:53:12.936Z,38.17
2017-01-21T11:55:25.454Z,37.74
2017-01-21T11:57:38.135Z,37.45
2017-01-21T11:59:50.535Z,38.17
2017-01-21T12:02:03.176Z,39.47
2017-01-21T12:04:15.680Z,37.93
2017-01-21T12:06:28.104Z,39.36
2017-01-21T12:08:40.409Z,39.75
2017-01-21T12:10:52.792Z,40.32
2017-01-21T12:13:05.179Z,41.91
2017-01-21T12:15:17.757Z,41.79
2017-01-21T12:17:30.302Z,39.79
2017-01-21T12:19:48.916Z,39.01
2017-01-21T12:22:03.325Z,40.06
2017-01-21T12:24:11.774Z,41.95
2017-01-21T12:26:24.653Z,41.55
2017-01-21T12:28:40.667Z,42.25
2017-01-21T12:30:53.169Z,43.12
2017-01-21T12:33:00.961Z,42.46
2017-01-21T12:35:13.307Z,42.28
2017-01-21T12:37:27.680Z,43.25
2017-01-21T12:39:41.671Z,43.82
2017-01-21T12:41:51.177Z,42.94
2017-01-21T12:44:05.355Z,43.72
2017-01-21T12:46:21.915Z,44.02
2017-01-21T12:48:30.489Z,44.31
2017-01-21T12:50:42.904Z,44.21
2017-01-21T12:52:55.747Z,45.02
2017-01-21T12:55:09.115Z,45.77
2017-01-21T12:57:50.884Z,46.1
2017-01-21T13:00:03.534Z,45.82
2017-01-21T13:02:11.844Z,45.59
2017-01-21T13:04:24.234Z,45.88
2017-01-21T13:06:36.677Z,45.88
2017-01-21T13:08:49.796Z,46.93
2017-01-21T13:11:02.483Z,46.2
2017-01-21T13:13:15.596Z,46.59
2017-01-21T13:15:28.037Z,47.15
2017-01-21T13:17:40.614Z,47.07
2017-01-21T13:19:53.003Z,48.22
2017-01-21T13:22:06.215Z,48.05
2017-01-21T13:24:19.524Z,47.95
2017-01-21T13:26:27.285Z,48
2017-01-21T13:28:40.529Z,48.52
2017-01-21T13:30:57.915Z,48.63
2017-01-21T13:33:10.382Z,48.99
2017-01-21T13:35:22.852Z,49.84
2017-01-21T13:37:35.088Z,49.61
2017-01-21T13:39:47.547Z,48.99
2017-01-21T13:41:59.776Z,49.2
2017-01-21T13:44:11.978Z,49.33
2017-01-21T13:46:24.399Z,49.56
2017-01-21T13:48:36.737Z,49.08
2017-01-21T13:50:49.293Z,49.15
2017-01-21T13:53:01.547Z,49.19
2017-01-21T13:55:13.818Z,49.31
2017-01-21T13:57:21.078Z,49.26
2017-01-21T13:59:33.517Z,49.42
2017-01-21T14:01:46.323Z,49.69
2017-01-21T14:03:58.902Z,49.99
2017-01-21T14:06:11.260Z,50.29
2017-01-21T14:08:23.516Z,50.21
2017-01-21T14:12:46.731Z,50.6
2017-01-21T14:14:59.031Z,50.4
2017-01-21T14:17:11.305Z,50.27
2017-01-21T14:19:23.639Z,50.88
2017-01-21T14:21:35.880Z,51.22
2017-01-21T14:23:48.391Z,51.91
2017-01-21T14:26:00.646Z,52.43
2017-01-21T14:28:13.063Z,52.83
2017-01-21T14:30:25.746Z,53.27
2017-01-21T14:32:38.087Z,53.74
2017-01-21T14:34:50.486Z,54.18
2017-01-21T14:37:03.039Z,54.54
2017-01-21T14:39:15.385Z,54.89
2017-01-21T14:41:27.702Z,55.31
2017-01-21T14:43:40.274Z,55.75
2017-01-21T14:45:52.553Z,56.21
2017-01-21T14:48:05.059Z,56.61
2017-01-21T14:50:17.375Z,56.92
2017-01-21T14:52:25.014Z,57.29
2017-01-21T14:54:37.280Z,57.63
2017-01-21T14:56:49.744Z,57.97
2017-01-21T14:58:57.132Z,58.3
2017-01-21T15:01:04.501Z,58.71
2017-01-21T15:03:16.857Z,59.05
2017-01-21T15:05:29.396Z,59.38
2017-01-21T15:07:41.943Z,59.7
2017-01-21T15:09:49.354Z,60
2017-01-21T15:12:02.172Z,60.31
2017-01-21T15:14:15.217Z,60.61
2017-01-21T15:16:27.512Z,60.84
2017-01-21T15:18:40.187Z,61.26
2017-01-21T15:20:54.654Z,61.36
2017-01-21T15:23:07.283Z,61.5
2017-01-21T15:25:19.614Z,61.62
2017-01-21T15:27:32.015Z,61.51
2017-01-21T15:29:44.364Z,61.3
2017-01-21T15:31:56.630Z,61.25
2017-01-21T15:34:08.893Z,61.26
2017-01-21T15:36:16.251Z,61.38
2017-01-21T15:38:28.698Z,61.56
2017-01-21T15:40:41.201Z,61.77
2017-01-21T15:42:53.618Z,61.99
2017-01-21T15:45:06.162Z,62.18
2017-01-21T15:47:18.799Z,62.48
2017-01-21T15:49:31.509Z,62.8
2017-01-21T15:51:44.021Z,63.09
2017-01-21T15:53:51.661Z,63.31
2017-01-21T15:56:04.052Z,63.51
2017-01-21T16:00:26.812Z,63.86
2017-01-21T16:02:39.246Z,63.97
2017-01-21T16:04:51.619Z,64.15
2017-01-21T16:06:58.884Z,64.27
2017-01-21T16:09:11.186Z,64.41
2017-01-21T16:11:23.373Z,64.53
2017-01-21T16:13:35.717Z,64.62
2017-01-21T16:15:48.150Z,64.66
2017-01-21T16:18:00.592Z,64.67
2017-01-21T16:20:12.947Z,64.72
2017-01-21T16:22:25.494Z,64.76
2017-01-21T16:24:38.066Z,64.79
2017-01-21T16:26:50.322Z,64.86
2017-01-21T16:29:02.616Z,64.89
2017-01-21T16:31:14.852Z,64.94
2017-01-21T16:33:27.191Z,64.98
2017-01-21T16:35:39.770Z,65.03
2017-01-21T16:37:52.109Z,65.07
2017-01-21T16:40:04.571Z,65.08
2017-01-21T16:42:16.960Z,65.09
2017-01-21T16:44:29.446Z,65.17
2017-01-21T16:46:41.940Z,65.19
2017-01-21T16:48:54.341Z,65.19
2017-01-21T16:51:07.301Z,65.2
2017-01-21T16:53:14.984Z,65.23
2017-01-21T16:55:22.423Z,65.2
2017-01-21T16:57:29.704Z,65.15
2017-01-21T16:59:40.664Z,65.14
2017-01-21T17:01:53.162Z,65.19
2017-01-21T17:04:05.636Z,65.26
2017-01-21T17:06:17.968Z,65.28
2017-01-21T17:08:28.541Z,65.25
2017-01-21T17:10:40.888Z,65.23
2017-01-21T17:12:53.368Z,65.22
2017-01-21T17:15:05.828Z,65.2
2017-01-21T17:17:18.353Z,65.19
2017-01-21T17:19:30.713Z,65.22
2017-01-21T17:21:43.025Z,65.22
2017-01-21T17:23:55.310Z,65.21
2017-01-21T17:26:07.987Z,65.16
2017-01-21T17:28:20.228Z,65.12
2017-01-21T17:30:27.574Z,65.09
2017-01-21T17:32:39.844Z,65.04
2017-01-21T17:34:52.525Z,65.04
2017-01-21T17:37:05.082Z,65.02
2017-01-21T17:39:07.504Z,65.02
2017-01-21T17:41:20.068Z,64.99
2017-01-21T17:43:32.611Z,64.99
2017-01-21T17:45:45.113Z,64.99
2017-01-21T17:47:57.397Z,64.96
2017-01-21T17:50:09.840Z,64.98
2017-01-21T17:52:22.366Z,64.95
2017-01-21T17:54:34.639Z,64.9
2017-01-21T17:56:41.983Z,64.84
2017-01-21T17:58:49.496Z,64.8
2017-01-21T18:01:01.891Z,64.82
2017-01-21T18:03:14.320Z,64.79
2017-01-21T18:05:26.923Z,64.74
2017-01-21T18:07:37.662Z,64.72
2017-01-21T18:09:50.422Z,64.67
2017-01-21T18:11:57.928Z,64.62
2017-01-21T18:14:10.499Z,64.56
2017-01-21T18:16:22.962Z,64.51
2017-01-21T18:18:35.537Z,64.43
2017-01-21T18:20:48.484Z,64.36
2017-01-21T18:23:01.491Z,64.32
2017-01-21T18:25:16.470Z,64.32
2017-01-21T18:27:24.749Z,64.31
2017-01-21T18:29:37.073Z,64.3
2017-01-21T18:31:49.815Z,64.22
2017-01-21T18:34:02.745Z,64.16
2017-01-21T18:36:15.608Z,64.12
2017-01-21T18:38:31.480Z,64.02
2017-01-21T18:40:45.924Z,63.96
2017-01-21T18:43:01.439Z,63.9
2017-01-21T18:45:14.982Z,63.85
2017-01-21T18:47:26.044Z,63.82
2017-01-21T18:49:36.906Z,63.77
2017-01-21T18:51:49.280Z,63.74
2017-01-21T18:54:01.963Z,63.7
2017-01-21T18:56:09.501Z,63.65
2017-01-21T18:58:21.906Z,63.6
2017-01-21T19:00:34.361Z,63.49
2017-01-21T19:02:46.968Z,63.44
2017-01-21T19:04:59.497Z,63.4
2017-01-21T19:07:12.153Z,63.41
2017-01-21T19:09:24.546Z,63.36
2017-01-21T19:11:32.109Z,63.3
2017-01-21T19:13:44.549Z,63.24
2017-01-21T19:15:57.164Z,63.18
2017-01-21T19:18:09.600Z,63.11
2017-01-21T19:20:22.164Z,63.08
2017-01-21T19:22:35.174Z,63.06
2017-01-21T19:24:47.706Z,63.02
2017-01-21T19:26:55.135Z,62.96
2017-01-21T19:29:03.075Z,62.9
2017-01-21T19:31:10.707Z,62.85
2017-01-21T19:33:23.612Z,62.81
2017-01-21T19:35:32.319Z,62.77
2017-01-21T19:37:46.452Z,62.71
2017-01-21T19:39:59.560Z,62.65
2017-01-21T19:42:13.041Z,62.6
2017-01-21T19:44:26.507Z,62.56
2017-01-21T19:46:39.030Z,62.49
2017-01-21T19:48:51.771Z,62.46
2017-01-21T19:51:07.391Z,62.42
2017-01-21T19:53:20.527Z,62.37
2017-01-21T19:55:45.846Z,62.26
2017-01-21T19:58:03.178Z,62.13
2017-01-21T20:00:16.989Z,62.06
2017-01-21T20:02:30.186Z,62
2017-01-21T20:04:38.112Z,61.99
2017-01-21T20:06:51.633Z,62.02
2017-01-21T20:09:06.889Z,62.04
2017-01-21T20:11:27.072Z,62.05
2017-01-21T20:13:50.516Z,62.04
2017-01-21T20:16:04.977Z,62.01
2017-01-21T20:18:23.563Z,61.95
2017-01-21T20:20:45.458Z,61.89
2017-01-21T20:23:01.524Z,61.85
2017-01-21T20:25:17.912Z,61.8
2017-01-21T20:27:34.056Z,61.76
2017-01-21T20:29:54.576Z,61.71
2017-01-21T20:32:15.657Z,61.67
2017-01-21T20:34:29.511Z,61.61
2017-01-21T20:36:52.043Z,61.55
2017-01-21T20:39:11.701Z,61.5
2017-01-21T20:41:40.525Z,61.43
2017-01-21T20:44:07.172Z,61.38
2017-01-21T20:46:27.004Z,61.35
2017-01-21T20:48:41.321Z,61.29
2017-01-21T20:50:54.122Z,61.27
2017-01-21T20:53:10.009Z,61.2
2017-01-21T20:55:40.506Z,61.16
2017-01-21T20:57:53.928Z,61.16
2017-01-21T21:00:12.537Z,61.1
2017-01-21T21:02:42.366Z,61.02
2017-01-21T21:05:00.478Z,61
2017-01-21T21:07:18.835Z,60.99
2017-01-21T21:09:37.534Z,60.97
2017-01-21T21:11:57.256Z,60.95
2017-01-21T21:14:25.461Z,60.92
2017-01-21T21:16:38.853Z,60.92
2017-01-21T21:18:51.523Z,60.88
2017-01-21T21:20:59.728Z,60.86
2017-01-21T21:23:12.837Z,60.84
2017-01-21T21:25:26.946Z,60.79
2017-01-21T21:27:48.688Z,60.77
2017-01-21T21:30:25.836Z,60.74
2017-01-21T21:32:43.988Z,60.72
2017-01-21T21:35:00.421Z,60.71
2017-01-21T21:37:18.312Z,60.65
2017-01-21T21:39:32.216Z,60.57
2017-01-21T21:41:45.393Z,60.54
2017-01-21T21:43:58.496Z,60.48
2017-01-21T21:46:12.900Z,60.44
2017-01-21T21:48:25.209Z,60.39
2017-01-21T21:50:37.947Z,60.38
2017-01-21T21:52:51.666Z,60.38
2017-01-21T21:55:07.606Z,60.38
2017-01-21T21:57:24.253Z,60.4
2017-01-21T21:59:32.676Z,60.4
2017-01-21T22:01:45.780Z,60.38
2017-01-21T22:04:05.153Z,60.36
2017-01-21T22:06:19.838Z,60.31
2017-01-21T22:08:40.212Z,60.29
2017-01-21T22:10:53.027Z,60.26
2017-01-21T22:13:01.155Z,60.22
2017-01-21T22:15:17.149Z,60.23
2017-01-21T22:17:31.579Z,60.2
2017-01-21T22:19:44.523Z,60.15
2017-01-21T22:21:52.042Z,60.13
2017-01-21T22:24:04.671Z,60.14
2017-01-21T22:26:15.566Z,60.1
2017-01-21T22:28:28.002Z,60.11
2017-01-21T22:30:40.345Z,60.05
2017-01-21T22:32:52.611Z,60.04
2017-01-21T22:35:04.869Z,60.04
2017-01-21T22:37:17.184Z,60.03
2017-01-21T22:39:29.571Z,60.03
2017-01-21T22:41:45.512Z,59.94
2017-01-21T22:43:58.006Z,59.9
2017-01-21T22:46:00.496Z,59.84
2017-01-21T22:48:13.514Z,59.82
2017-01-21T22:50:20.922Z,59.81
2017-01-21T22:52:35.598Z,59.83
2017-01-21T22:54:48.013Z,59.87
2017-01-21T22:57:00.579Z,59.89
2017-01-21T22:59:14.340Z,59.91
2017-01-21T23:01:26.715Z,59.9
2017-01-21T23:03:39.151Z,59.9
2017-01-21T23:05:46.502Z,59.89
2017-01-21T23:07:59.167Z,59.86
2017-01-21T23:10:11.499Z,59.84
2017-01-21T23:12:25.809Z,59.84
2017-01-21T23:14:41.689Z,59.82
2017-01-21T23:16:55.492Z,59.8
2017-01-21T23:19:04.317Z,59.83
2017-01-21T23:21:22.469Z,59.83
2017-01-21T23:23:36.485Z,59.84
2017-01-21T23:25:49.138Z,59.83
2017-01-21T23:28:02.062Z,59.84
2017-01-21T23:30:14.843Z,59.84
2017-01-21T23:32:22.343Z,59.83
2017-01-21T23:34:35.085Z,59.83
2017-01-21T23:36:47.374Z,59.79
2017-01-21T23:38:59.774Z,59.74
2017-01-21T23:41:12.317Z,59.74
2017-01-21T23:43:24.641Z,59.71
2017-01-21T23:45:37.007Z,59.65
2017-01-21T23:47:49.505Z,59.66
2017-01-21T23:50:01.866Z,59.66
2017-01-21T23:52:09.188Z,59.62
2017-01-21T23:54:21.384Z,59.64
2017-01-21T23:56:29.083Z,59.64
2017-01-21T23:58:41.786Z,59.65
